sensor_id;sensor_type;location;lat;lon;timestamp;pressure;altitude;pressure_sealevel;temperature;humidity
41686;BME280;27370;42.764;23.432;2022-07-12T00:01:21;96031.16;;;8.83;100.00
41686;BME280;27370;42.764;23.432;2022-07-12T00:03:46;96033.06;;;8.90;100.00
41686;BME280;27370;42.764;23.432;2022-07-12T00:06:12;96033.06;;;8.90;100.00
41686;BME280;27370;42.764;23.432;2022-07-12T00:08:38;96034.22;;;8.82;100.00
41686;BME280;27370;42.764;23.432;2022-07-12T00:11:06;96032.28;;;8.72;100.00
41686;BME280;27370;42.764;23.432;2022-07-12T00:13:32;96029.22;;;8.87;100.00
41686;BME280;27370;42.764;23.432;2022-07-12T00:15:57;96034.59;;;8.77;100.00
41686;BME280;27370;42.764;23.432;2022-07-12T00:18:23;96035.75;;;8.62;100.00
41686;BME280;27370;42.764;23.432;2022-07-12T00:20:50;96031.13;;;8.76;100.00
41686;BME280;27370;42.764;23.432;2022-07-12T00:23:16;96038.44;;;8.69;100.00
41686;BME280;27370;42.764;23.432;2022-07-12T00:25:42;96041.13;;;8.62;100.00
41686;BME280;27370;42.764;23.432;2022-07-12T00:28:07;96035.69;;;8.51;100.00
41686;BME280;27370;42.764;23.432;2022-07-12T00:30:33;96042.25;;;8.53;100.00
41686;BME280;27370;42.764;23.432;2022-07-12T00:32:59;96038.00;;;8.49;100.00
41686;BME280;27370;42.764;23.432;2022-07-12T00:35:25;96036.84;;;8.53;100.00
41686;BME280;27370;42.764;23.432;2022-07-12T00:37:50;96038.78;;;8.42;100.00
41686;BME280;27370;42.764;23.432;2022-07-12T00:40:16;96037.25;;;8.55;100.00
41686;BME280;27370;42.764;23.432;2022-07-12T00:42:41;96036.53;;;8.80;100.00
41686;BME280;27370;42.764;23.432;2022-07-12T00:45:08;96042.34;;;9.25;100.00
41686;BME280;27370;42.764;23.432;2022-07-12T00:47:34;96031.53;;;9.17;100.00
41686;BME280;27370;42.764;23.432;2022-07-12T00:50:16;96033.06;;;9.01;100.00
41686;BME280;27370;42.764;23.432;2022-07-12T00:52:43;96032.31;;;8.97;100.00
41686;BME280;27370;42.764;23.432;2022-07-12T00:55:10;96039.22;;;8.76;100.00
41686;BME280;27370;42.764;23.432;2022-07-12T00:57:38;96036.13;;;8.60;100.00
41686;BME280;27370;42.764;23.432;2022-07-12T01:00:06;96030.00;;;8.84;100.00
41686;BME280;27370;42.764;23.432;2022-07-12T01:02:33;96035.00;;;8.89;100.00
41686;BME280;27370;42.764;23.432;2022-07-12T01:04:59;96030.72;;;8.78;100.00
41686;BME280;27370;42.764;23.432;2022-07-12T01:07:26;96034.19;;;8.64;100.00
41686;BME280;27370;42.764;23.432;2022-07-12T01:09:53;96030.34;;;8.69;100.00
41686;BME280;27370;42.764;23.432;2022-07-12T01:12:20;96034.56;;;8.59;100.00
41686;BME280;27370;42.764;23.432;2022-07-12T01:14:50;96036.91;;;8.64;100.00
41686;BME280;27370;42.764;23.432;2022-07-12T01:17:23;96043.78;;;8.40;100.00
41686;BME280;27370;42.764;23.432;2022-07-12T01:19:51;96039.44;;;8.18;100.00
41686;BME280;27370;42.764;23.432;2022-07-12T01:22:17;96045.53;;;8.04;100.00
41686;BME280;27370;42.764;23.432;2022-07-12T01:24:45;96033.59;;;8.12;100.00
41686;BME280;27370;42.764;23.432;2022-07-12T01:27:11;96039.44;;;8.18;100.00
41686;BME280;27370;42.764;23.432;2022-07-12T01:29:38;96034.34;;;8.06;100.00
41686;BME280;27370;42.764;23.432;2022-07-12T01:32:05;96038.59;;;8.03;100.00
41686;BME280;27370;42.764;23.432;2022-07-12T01:34:54;96038.22;;;8.05;100.00
41686;BME280;27370;42.764;23.432;2022-07-12T01:37:21;96042.91;;;8.25;100.00
41686;BME280;27370;42.764;23.432;2022-07-12T01:39:49;96029.44;;;8.29;100.00
41686;BME280;27370;42.764;23.432;2022-07-12T01:42:15;96040.22;;;8.29;100.00
41686;BME280;27370;42.764;23.432;2022-07-12T01:44:41;96037.56;;;8.36;100.00
41686;BME280;27370;42.764;23.432;2022-07-12T01:47:07;96037.91;;;8.27;100.00
41686;BME280;27370;42.764;23.432;2022-07-12T01:49:32;96017.88;;;8.25;100.00
41686;BME280;27370;42.764;23.432;2022-07-12T01:51:58;96028.72;;;8.36;100.00
41686;BME280;27370;42.764;23.432;2022-07-12T01:54:25;96026.44;;;8.48;100.00
41686;BME280;27370;42.764;23.432;2022-07-12T01:56:54;96025.69;;;8.51;100.00
41686;BME280;27370;42.764;23.432;2022-07-12T01:59:21;96025.56;;;8.26;100.00
41686;BME280;27370;42.764;23.432;2022-07-12T02:01:47;96021.72;;;8.27;100.00
41686;BME280;27370;42.764;23.432;2022-07-12T02:04:17;96022.47;;;8.21;100.00
41686;BME280;27370;42.764;23.432;2022-07-12T02:06:46;96028.66;;;8.28;100.00
41686;BME280;27370;42.764;23.432;2022-07-12T02:09:13;96020.22;;;8.37;100.00
41686;BME280;27370;42.764;23.432;2022-07-12T02:11:40;96011.78;;;8.49;100.00
41686;BME280;27370;42.764;23.432;2022-07-12T02:14:06;96023.75;;;8.48;100.00
41686;BME280;27370;42.764;23.432;2022-07-12T02:16:32;96026.81;;;8.47;100.00
41686;BME280;27370;42.764;23.432;2022-07-12T02:18:58;96019.50;;;8.51;100.00
41686;BME280;27370;42.764;23.432;2022-07-12T02:21:24;96026.34;;;8.27;100.00
41686;BME280;27370;42.764;23.432;2022-07-12T02:23:49;96022.13;;;8.29;100.00
41686;BME280;27370;42.764;23.432;2022-07-12T02:26:15;96019.88;;;8.39;100.00
41686;BME280;27370;42.764;23.432;2022-07-12T02:28:41;96029.13;;;8.38;100.00
41686;BME280;27370;42.764;23.432;2022-07-12T02:31:06;96024.91;;;8.47;100.00
41686;BME280;27370;42.764;23.432;2022-07-12T02:33:32;96028.63;;;8.18;100.00
41686;BME280;27370;42.764;23.432;2022-07-12T02:35:58;96026.72;;;8.25;100.00
41686;BME280;27370;42.764;23.432;2022-07-12T02:38:23;96028.97;;;8.13;100.00
41686;BME280;27370;42.764;23.432;2022-07-12T02:40:48;96037.06;;;8.13;100.00
41686;BME280;27370;42.764;23.432;2022-07-12T02:43:30;96037.13;;;8.20;100.00
41686;BME280;27370;42.764;23.432;2022-07-12T02:46:07;96039.47;;;8.28;100.00
41686;BME280;27370;42.764;23.432;2022-07-12T02:48:33;96041.75;;;8.23;100.00
41686;BME280;27370;42.764;23.432;2022-07-12T02:51:00;96044.41;;;8.12;100.00
41686;BME280;27370;42.764;23.432;2022-07-12T02:53:25;96044.34;;;8.02;100.00
41686;BME280;27370;42.764;23.432;2022-07-12T02:55:51;96046.31;;;8.12;100.00
41686;BME280;27370;42.764;23.432;2022-07-12T02:58:16;96042.44;;;8.06;100.00
41686;BME280;27370;42.764;23.432;2022-07-12T03:00:42;96045.91;;;7.99;100.00
41686;BME280;27370;42.764;23.432;2022-07-12T03:03:10;96051.22;;;7.92;100.00
41686;BME280;27370;42.764;23.432;2022-07-12T03:05:36;96047.72;;;7.84;100.00
41686;BME280;27370;42.764;23.432;2022-07-12T03:08:06;96058.59;;;7.98;100.00
41686;BME280;27370;42.764;23.432;2022-07-12T03:10:32;96053.88;;;7.78;100.00
41686;BME280;27370;42.764;23.432;2022-07-12T03:12:57;96045.06;;;7.88;100.00
41686;BME280;27370;42.764;23.432;2022-07-12T03:15:23;96062.44;;;7.97;100.00
41686;BME280;27370;42.764;23.432;2022-07-12T03:17:49;96065.19;;;8.05;100.00
41686;BME280;27370;42.764;23.432;2022-07-12T03:20:14;96073.63;;;7.99;100.00
41686;BME280;27370;42.764;23.432;2022-07-12T03:22:43;96068.28;;;8.10;100.00
41686;BME280;27370;42.764;23.432;2022-07-12T03:25:11;96073.34;;;8.15;100.00
41686;BME280;27370;42.764;23.432;2022-07-12T03:27:38;96080.28;;;8.20;100.00
41686;BME280;27370;42.764;23.432;2022-07-12T03:30:04;96074.44;;;8.07;100.00
41686;BME280;27370;42.764;23.432;2022-07-12T03:32:30;96077.13;;;8.04;100.00
41686;BME280;27370;42.764;23.432;2022-07-12T03:34:55;96075.19;;;8.08;100.00
41686;BME280;27370;42.764;23.432;2022-07-12T03:37:21;96077.13;;;8.04;100.00
41686;BME280;27370;42.764;23.432;2022-07-12T03:39:46;96072.84;;;7.95;100.00
41686;BME280;27370;42.764;23.432;2022-07-12T03:42:12;96071.75;;;8.11;100.00
41686;BME280;27370;42.764;23.432;2022-07-12T03:44:38;96069.81;;;8.08;100.00
41686;BME280;27370;42.764;23.432;2022-07-12T03:47:03;96076.91;;;8.37;100.00
41686;BME280;27370;42.764;23.432;2022-07-12T03:49:29;96074.53;;;8.28;100.00
41686;BME280;27370;42.764;23.432;2022-07-12T03:51:54;96080.41;;;8.38;100.00
41686;BME280;27370;42.764;23.432;2022-07-12T03:54:20;96083.91;;;8.56;100.00
41686;BME280;27370;42.764;23.432;2022-07-12T03:56:45;96069.69;;;8.80;100.00
41686;BME280;27370;42.764;23.432;2022-07-12T03:59:29;96082.88;;;9.07;100.00
41686;BME280;27370;42.764;23.432;2022-07-12T04:01:55;96073.25;;;9.34;100.00
41686;BME280;27370;42.764;23.432;2022-07-12T04:04:20;96076.31;;;9.47;100.00
41686;BME280;27370;42.764;23.432;2022-07-12T04:06:46;96090.97;;;9.74;100.00
41686;BME280;27370;42.764;23.432;2022-07-12T04:09:12;96082.44;;;9.90;100.00
41686;BME280;27370;42.764;23.432;2022-07-12T04:11:37;96089.72;;;10.11;100.00
41686;BME280;27370;42.764;23.432;2022-07-12T04:14:03;96078.88;;;10.29;100.00
41686;BME280;27370;42.764;23.432;2022-07-12T04:16:29;96086.19;;;10.42;100.00
41686;BME280;27370;42.764;23.432;2022-07-12T04:18:55;96086.44;;;10.73;100.00
41686;BME280;27370;42.764;23.432;2022-07-12T04:21:21;96091.38;;;10.85;100.00
41686;BME280;27370;42.764;23.432;2022-07-12T04:23:47;96092.06;;;11.03;100.00
41686;BME280;27370;42.764;23.432;2022-07-12T04:26:12;96089.56;;;11.27;100.00
41686;BME280;27370;42.764;23.432;2022-07-12T04:28:38;96092.53;;;11.47;100.00
41686;BME280;27370;42.764;23.432;2022-07-12T04:31:03;96097.81;;;11.64;100.00
41686;BME280;27370;42.764;23.432;2022-07-12T04:33:29;96094.63;;;11.73;100.00
41686;BME280;27370;42.764;23.432;2022-07-12T04:35:54;96102.31;;;11.85;100.00
41686;BME280;27370;42.764;23.432;2022-07-12T04:38:20;96105.28;;;11.98;100.00
41686;BME280;27370;42.764;23.432;2022-07-12T04:40:45;96099.03;;;12.05;100.00
41686;BME280;27370;42.764;23.432;2022-07-12T04:43:11;96106.28;;;12.15;100.00
41686;BME280;27370;42.764;23.432;2022-07-12T04:45:37;96104.63;;;12.24;100.00
41686;BME280;27370;42.764;23.432;2022-07-12T04:48:02;96101.03;;;12.35;100.00
41686;BME280;27370;42.764;23.432;2022-07-12T04:50:28;96111.78;;;12.42;100.00
41686;BME280;27370;42.764;23.432;2022-07-12T04:52:53;96104.63;;;12.24;100.00
41686;BME280;27370;42.764;23.432;2022-07-12T04:55:19;96101.94;;;12.55;100.00
41686;BME280;27370;42.764;23.432;2022-07-12T04:57:44;96102.56;;;12.70;100.00
41686;BME280;27370;42.764;23.432;2022-07-12T05:00:10;96096.75;;;12.68;100.00
41686;BME280;27370;42.764;23.432;2022-07-12T05:02:36;96111.13;;;12.68;100.00
41686;BME280;27370;42.764;23.432;2022-07-12T05:05:02;96105.78;;;12.88;100.00
41686;BME280;27370;42.764;23.432;2022-07-12T05:07:28;96105.38;;;12.89;100.00
41686;BME280;27370;42.764;23.432;2022-07-12T05:09:54;96106.28;;;13.10;100.00
41686;BME280;27370;42.764;23.432;2022-07-12T05:12:20;96108.34;;;13.29;100.00
41686;BME280;27370;42.764;23.432;2022-07-12T05:14:45;96108.63;;;13.38;100.00
41686;BME280;27370;42.764;23.432;2022-07-12T05:17:11;96102.31;;;13.45;100.00
41686;BME280;27370;42.764;23.432;2022-07-12T05:19:37;96102.84;;;13.36;100.00
41686;BME280;27370;42.764;23.432;2022-07-12T05:22:03;96103.72;;;13.53;100.00
41686;BME280;27370;42.764;23.432;2022-07-12T05:24:28;96106.03;;;13.78;100.00
41686;BME280;27370;42.764;23.432;2022-07-12T05:26:54;96112.38;;;13.95;100.00
41686;BME280;27370;42.764;23.432;2022-07-12T05:29:20;96104.84;;;14.02;100.00
41686;BME280;27370;42.764;23.432;2022-07-12T05:31:45;96114.94;;;14.02;100.00
41686;BME280;27370;42.764;23.432;2022-07-12T05:34:11;96106.47;;;14.20;100.00
41686;BME280;27370;42.764;23.432;2022-07-12T05:36:37;96109.19;;;14.20;100.00
41686;BME280;27370;42.764;23.432;2022-07-12T05:39:02;96105.94;;;14.28;100.00
41686;BME280;27370;42.764;23.432;2022-07-12T05:41:28;96112.59;;;14.47;100.00
41686;BME280;27370;42.764;23.432;2022-07-12T05:43:53;96105.13;;;14.71;100.00
41686;BME280;27370;42.764;23.432;2022-07-12T05:46:19;96108.25;;;14.69;100.00
41686;BME280;27370;42.764;23.432;2022-07-12T05:48:44;96112.31;;;14.61;100.00
41686;BME280;27370;42.764;23.432;2022-07-12T05:51:10;96096.09;;;14.94;100.00
41686;BME280;27370;42.764;23.432;2022-07-12T05:53:54;96104.50;;;15.52;100.00
41686;BME280;27370;42.764;23.432;2022-07-12T05:56:19;96103.50;;;15.78;100.00
41686;BME280;27370;42.764;23.432;2022-07-12T05:58:45;96100.63;;;15.85;100.00
41686;BME280;27370;42.764;23.432;2022-07-12T06:01:11;96102.06;;;15.90;100.00
41686;BME280;27370;42.764;23.432;2022-07-12T06:03:36;96099.81;;;16.01;99.59
41686;BME280;27370;42.764;23.432;2022-07-12T06:06:03;96101.19;;;16.09;100.00
41686;BME280;27370;42.764;23.432;2022-07-12T06:08:28;96091.94;;;16.19;100.00
41686;BME280;27370;42.764;23.432;2022-07-12T06:10:54;96097.94;;;16.14;100.00
41686;BME280;27370;42.764;23.432;2022-07-12T06:13:19;96094.81;;;16.29;100.00
41686;BME280;27370;42.764;23.432;2022-07-12T06:15:45;96092.22;;;16.38;99.04
41686;BME280;27370;42.764;23.432;2022-07-12T06:18:10;96089.44;;;16.54;100.00
41686;BME280;27370;42.764;23.432;2022-07-12T06:20:36;96094.91;;;16.54;96.73
41686;BME280;27370;42.764;23.432;2022-07-12T06:23:01;96097.69;;;16.67;97.83
41686;BME280;27370;42.764;23.432;2022-07-12T06:25:27;96083.75;;;16.90;96.60
41686;BME280;27370;42.764;23.432;2022-07-12T06:27:52;96094.59;;;17.06;93.81
41686;BME280;27370;42.764;23.432;2022-07-12T06:30:19;96085.63;;;17.06;97.16
41686;BME280;27370;42.764;23.432;2022-07-12T06:32:45;96085.72;;;17.15;97.30
41686;BME280;27370;42.764;23.432;2022-07-12T06:35:12;96078.28;;;17.28;97.22
41686;BME280;27370;42.764;23.432;2022-07-12T06:37:37;96076.31;;;17.54;95.16
41686;BME280;27370;42.764;23.432;2022-07-12T06:40:03;96086.81;;;17.56;94.59
41686;BME280;27370;42.764;23.432;2022-07-12T06:42:29;96082.66;;;17.51;88.34
41686;BME280;27370;42.764;23.432;2022-07-12T06:44:58;96080.25;;;17.66;92.42
41686;BME280;27370;42.764;23.432;2022-07-12T06:47:23;96081.19;;;17.85;89.89
41686;BME280;27370;42.764;23.432;2022-07-12T06:49:49;96083.66;;;18.39;87.64
41686;BME280;27370;42.764;23.432;2022-07-12T06:52:15;96071.38;;;18.96;85.58
41686;BME280;27370;42.764;23.432;2022-07-12T06:54:40;96063.31;;;19.24;83.07
41686;BME280;27370;42.764;23.432;2022-07-12T06:57:06;96063.56;;;19.57;80.30
41686;BME280;27370;42.764;23.432;2022-07-12T06:59:32;96057.06;;;19.82;79.93
41686;BME280;27370;42.764;23.432;2022-07-12T07:01:57;96065.34;;;20.18;72.28
41686;BME280;27370;42.764;23.432;2022-07-12T07:04:23;96057.28;;;20.42;72.27
41686;BME280;27370;42.764;23.432;2022-07-12T07:06:49;96061.84;;;20.27;71.64
41686;BME280;27370;42.764;23.432;2022-07-12T07:09:15;96054.50;;;20.15;69.27
41686;BME280;27370;42.764;23.432;2022-07-12T07:11:41;96052.19;;;20.13;69.01
41686;BME280;27370;42.764;23.432;2022-07-12T07:14:06;96054.34;;;20.28;70.44
41686;BME280;27370;42.764;23.432;2022-07-12T07:16:32;96047.00;;;20.06;67.11
41686;BME280;27370;42.764;23.432;2022-07-12T07:18:57;96047.03;;;20.15;69.73
41686;BME280;27370;42.764;23.432;2022-07-12T07:21:23;96054.63;;;20.11;67.02
41686;BME280;27370;42.764;23.432;2022-07-12T07:23:50;96045.94;;;20.22;69.31
41686;BME280;27370;42.764;23.432;2022-07-12T07:26:16;96047.34;;;20.17;68.20
41686;BME280;27370;42.764;23.432;2022-07-12T07:28:42;96048.53;;;20.07;68.29
41686;BME280;27370;42.764;23.432;2022-07-12T07:31:26;96044.72;;;19.96;72.36
41686;BME280;27370;42.764;23.432;2022-07-12T07:33:51;96041.97;;;20.14;69.68
41686;BME280;27370;42.764;23.432;2022-07-12T07:36:17;96043.34;;;20.37;67.65
41686;BME280;27370;42.764;23.432;2022-07-12T07:38:42;96040.31;;;20.44;68.50
41686;BME280;27370;42.764;23.432;2022-07-12T07:41:08;96037.94;;;20.79;64.29
41686;BME280;27370;42.764;23.432;2022-07-12T07:43:33;96029.75;;;21.12;64.87
41686;BME280;27370;42.764;23.432;2022-07-12T07:45:59;96038.84;;;21.36;61.65
41686;BME280;27370;42.764;23.432;2022-07-12T07:48:27;96039.19;;;21.29;59.78
41686;BME280;27370;42.764;23.432;2022-07-12T07:50:52;96027.00;;;21.03;58.61
41686;BME280;27370;42.764;23.432;2022-07-12T07:53:18;96029.22;;;20.90;63.33
41686;BME280;27370;42.764;23.432;2022-07-12T07:55:43;96032.19;;;21.10;60.88
41686;BME280;27370;42.764;23.432;2022-07-12T07:58:09;96027.69;;;21.22;58.23
41686;BME280;27370;42.764;23.432;2022-07-12T08:00:34;96028.69;;;21.43;52.62
41686;BME280;27370;42.764;23.432;2022-07-12T08:03:00;96028.22;;;20.60;55.28
41686;BME280;27370;42.764;23.432;2022-07-12T08:05:25;96025.41;;;20.78;59.72
41686;BME280;27370;42.764;23.432;2022-07-12T08:07:51;96017.50;;;21.04;58.37
41686;BME280;27370;42.764;23.432;2022-07-12T08:10:16;96021.31;;;21.16;55.62
41686;BME280;27370;42.764;23.432;2022-07-12T08:12:42;96021.44;;;21.30;56.06
41686;BME280;27370;42.764;23.432;2022-07-12T08:15:08;96019.78;;;21.48;53.57
41686;BME280;27370;42.764;23.432;2022-07-12T08:17:33;96019.41;;;21.64;53.80
41686;BME280;27370;42.764;23.432;2022-07-12T08:19:59;96011.38;;;21.51;55.17
41686;BME280;27370;42.764;23.432;2022-07-12T08:22:24;96006.84;;;21.39;55.17
41686;BME280;27370;42.764;23.432;2022-07-12T08:24:50;96011.50;;;21.15;52.29
41686;BME280;27370;42.764;23.432;2022-07-12T08:27:16;96012.56;;;20.75;52.67
41686;BME280;27370;42.764;23.432;2022-07-12T08:29:41;96016.75;;;20.25;54.90
41686;BME280;27370;42.764;23.432;2022-07-12T08:32:07;96015.53;;;20.35;53.23
41686;BME280;27370;42.764;23.432;2022-07-12T08:34:34;96016.59;;;20.56;55.30
41686;BME280;27370;42.764;23.432;2022-07-12T08:36:59;96006.53;;;20.43;52.49
41686;BME280;27370;42.764;23.432;2022-07-12T08:39:25;96007.28;;;20.35;51.63
41686;BME280;27370;42.764;23.432;2022-07-12T08:41:50;96001.81;;;20.44;52.61
41686;BME280;27370;42.764;23.432;2022-07-12T08:44:16;96011.38;;;20.58;53.11
41686;BME280;27370;42.764;23.432;2022-07-12T08:46:41;96000.91;;;20.89;51.86
41686;BME280;27370;42.764;23.432;2022-07-12T08:49:07;96004.69;;;21.01;53.81
41686;BME280;27370;42.764;23.432;2022-07-12T08:51:33;95994.78;;;21.27;51.70
41686;BME280;27370;42.764;23.432;2022-07-12T08:54:10;95989.19;;;21.46;52.08
41686;BME280;27370;42.764;23.432;2022-07-12T08:56:37;95986.72;;;21.15;50.90
41686;BME280;27370;42.764;23.432;2022-07-12T08:59:23;95993.94;;;21.12;50.57
41686;BME280;27370;42.764;23.432;2022-07-12T09:01:53;95995.63;;;21.09;51.77
41686;BME280;27370;42.764;23.432;2022-07-12T09:04:20;95985.78;;;21.18;51.70
41686;BME280;27370;42.764;23.432;2022-07-12T09:06:47;95984.31;;;21.07;48.84
41686;BME280;27370;42.764;23.432;2022-07-12T09:09:29;95982.94;;;21.12;50.57
41686;BME280;27370;42.764;23.432;2022-07-12T09:11:55;95984.88;;;21.54;50.50
41686;BME280;27370;42.764;23.432;2022-07-12T09:14:20;95993.78;;;22.11;52.22
41686;BME280;27370;42.764;23.432;2022-07-12T09:17:02;95984.00;;;22.10;45.29
41686;BME280;27370;42.764;23.432;2022-07-12T09:19:29;95982.03;;;21.87;46.10
41686;BME280;27370;42.764;23.432;2022-07-12T09:21:55;95983.00;;;22.22;48.08
41686;BME280;27370;42.764;23.432;2022-07-12T09:24:24;95978.44;;;22.49;45.69
41686;BME280;27370;42.764;23.432;2022-07-12T09:27:00;95973.97;;;22.51;51.30
41686;BME280;27370;42.764;23.432;2022-07-12T09:29:26;95970.16;;;22.34;47.45
41686;BME280;27370;42.764;23.432;2022-07-12T09:31:52;95975.91;;;22.07;44.54
41686;BME280;27370;42.764;23.432;2022-07-12T09:34:36;95964.22;;;21.73;47.10
41686;BME280;27370;42.764;23.432;2022-07-12T09:37:21;95971.31;;;22.04;47.69
41686;BME280;27370;42.764;23.432;2022-07-12T09:39:48;95979.78;;;22.00;45.08
41686;BME280;27370;42.764;23.432;2022-07-12T09:42:14;95971.03;;;22.01;43.74
41686;BME280;27370;42.764;23.432;2022-07-12T09:44:40;95974.41;;;21.82;50.06
41686;BME280;27370;42.764;23.432;2022-07-12T09:47:09;95971.53;;;21.76;47.73
41686;BME280;27370;42.764;23.432;2022-07-12T09:49:39;95972.56;;;22.02;47.32
41686;BME280;27370;42.764;23.432;2022-07-12T09:52:10;95965.38;;;22.35;43.69
41686;BME280;27370;42.764;23.432;2022-07-12T09:54:40;95969.09;;;22.31;44.26
41686;BME280;27370;42.764;23.432;2022-07-12T09:57:13;95972.41;;;22.06;45.93
41686;BME280;27370;42.764;23.432;2022-07-12T09:59:41;95967.19;;;22.23;46.14
41686;BME280;27370;42.764;23.432;2022-07-12T10:02:07;95956.44;;;22.54;44.84
41686;BME280;27370;42.764;23.432;2022-07-12T10:04:32;95959.13;;;22.49;45.51
41686;BME280;27370;42.764;23.432;2022-07-12T10:06:58;95964.25;;;22.41;47.83
41686;BME280;27370;42.764;23.432;2022-07-12T10:09:25;95966.44;;;22.22;46.52
41686;BME280;27370;42.764;23.432;2022-07-12T10:11:52;95965.94;;;22.39;42.66
41686;BME280;27370;42.764;23.432;2022-07-12T10:14:20;95965.38;;;22.20;46.47
41686;BME280;27370;42.764;23.432;2022-07-12T10:16:50;95962.81;;;22.31;43.00
41686;BME280;27370;42.764;23.432;2022-07-12T10:19:30;95960.72;;;21.87;43.99
41686;BME280;27370;42.764;23.432;2022-07-12T10:21:59;95955.19;;;21.49;44.34
41686;BME280;27370;42.764;23.432;2022-07-12T10:26:56;95955.31;;;21.54;45.50
41686;BME280;27370;42.764;23.432;2022-07-12T10:29:22;95946.19;;;21.87;47.54
41686;BME280;27370;42.764;23.432;2022-07-12T10:31:49;95946.94;;;22.55;43.37
41686;BME280;27370;42.764;23.432;2022-07-12T10:39:22;95948.53;;;22.77;44.48
41686;BME280;27370;42.764;23.432;2022-07-12T10:42:17;95944.47;;;22.43;44.78
41686;BME280;27370;42.764;23.432;2022-07-12T10:44:47;95943.97;;;22.29;44.40
41686;BME280;27370;42.764;23.432;2022-07-12T10:47:14;95945.59;;;22.66;44.79
41686;BME280;27370;42.764;23.432;2022-07-12T10:49:50;95933.22;;;22.31;41.32
41686;BME280;27370;42.764;23.432;2022-07-12T10:52:23;95936.06;;;22.37;43.54
41686;BME280;27370;42.764;23.432;2022-07-12T10:57:40;95940.75;;;22.31;44.54
41686;BME280;27370;42.764;23.432;2022-07-12T11:00:07;95937.50;;;22.33;44.87
41686;BME280;27370;42.764;23.432;2022-07-12T11:02:34;95940.00;;;22.30;45.56
41686;BME280;27370;42.764;23.432;2022-07-12T11:05:00;95942.75;;;22.30;42.78
41686;BME280;27370;42.764;23.432;2022-07-12T11:07:27;95934.47;;;22.45;45.30
41686;BME280;27370;42.764;23.432;2022-07-12T11:09:53;95939.22;;;22.59;44.84
41686;BME280;27370;42.764;23.432;2022-07-12T11:12:19;95934.16;;;22.73;44.84
41686;BME280;27370;42.764;23.432;2022-07-12T11:14:45;95938.63;;;22.70;48.32
41686;BME280;27370;42.764;23.432;2022-07-12T11:17:11;95935.59;;;23.18;43.47
41686;BME280;27370;42.764;23.432;2022-07-12T11:19:37;95939.75;;;23.28;42.13
41686;BME280;27370;42.764;23.432;2022-07-12T11:22:03;95938.88;;;23.02;42.49
41686;BME280;27370;42.764;23.432;2022-07-12T11:24:32;95936.59;;;23.00;42.46
41686;BME280;27370;42.764;23.432;2022-07-12T11:27:00;95940.38;;;22.68;43.11
41686;BME280;27370;42.764;23.432;2022-07-12T11:29:25;95940.44;;;22.58;43.81
41686;BME280;27370;42.764;23.432;2022-07-12T11:32:00;95926.34;;;22.71;46.33
41686;BME280;27370;42.764;23.432;2022-07-12T11:34:26;95938.59;;;23.35;43.76
41686;BME280;27370;42.764;23.432;2022-07-12T11:36:59;95919.97;;;23.70;44.85
41686;BME280;27370;42.764;23.432;2022-07-12T11:41:58;95919.19;;;23.90;38.43
41686;BME280;27370;42.764;23.432;2022-07-12T11:44:41;95908.75;;;24.00;38.54
41686;BME280;27370;42.764;23.432;2022-07-12T11:47:07;95918.81;;;23.77;38.75
41686;BME280;27370;42.764;23.432;2022-07-12T11:49:33;95912.50;;;23.36;39.43
41686;BME280;27370;42.764;23.432;2022-07-12T11:51:58;95907.03;;;23.41;40.67
41686;BME280;27370;42.764;23.432;2022-07-12T11:54:25;95904.47;;;23.78;40.15
41686;BME280;27370;42.764;23.432;2022-07-12T11:57:06;95897.56;;;24.40;41.33
41686;BME280;27370;42.764;23.432;2022-07-12T11:59:32;95909.66;;;24.74;38.83
41686;BME280;27370;42.764;23.432;2022-07-12T12:02:11;95901.25;;;24.95;37.69
41686;BME280;27370;42.764;23.432;2022-07-12T12:04:52;95900.28;;;25.46;34.58
41686;BME280;27370;42.764;23.432;2022-07-12T12:07:20;95896.88;;;25.74;35.65
41686;BME280;27370;42.764;23.432;2022-07-12T12:10:12;95900.84;;;25.61;35.59
41686;BME280;27370;42.764;23.432;2022-07-12T12:12:45;95902.56;;;25.05;35.20
41686;BME280;27370;42.764;23.432;2022-07-12T12:15:16;95896.94;;;24.57;35.76
41686;BME280;27370;42.764;23.432;2022-07-12T12:17:45;95892.59;;;24.50;36.23
41686;BME280;27370;42.764;23.432;2022-07-12T12:20:13;95891.38;;;24.25;37.03
41686;BME280;27370;42.764;23.432;2022-07-12T12:22:40;95882.78;;;24.23;37.65
41686;BME280;27370;42.764;23.432;2022-07-12T12:25:06;95892.22;;;23.85;36.25
41686;BME280;27370;42.764;23.432;2022-07-12T12:28:00;95889.19;;;24.09;39.35
41686;BME280;27370;42.764;23.432;2022-07-12T12:30:28;95887.19;;;24.35;37.90
41686;BME280;27370;42.764;23.432;2022-07-12T12:32:56;95883.25;;;23.70;38.51
41686;BME280;27370;42.764;23.432;2022-07-12T12:35:29;95880.75;;;23.72;39.13
41686;BME280;27370;42.764;23.432;2022-07-12T12:37:57;95885.94;;;24.36;38.48
41686;BME280;27370;42.764;23.432;2022-07-12T12:40:25;95881.06;;;24.57;37.33
41686;BME280;27370;42.764;23.432;2022-07-12T12:42:51;95885.63;;;24.92;35.83
41686;BME280;27370;42.764;23.432;2022-07-12T12:45:26;95889.84;;;24.87;36.27
41686;BME280;27370;42.764;23.432;2022-07-12T12:47:56;95886.84;;;24.54;38.01
41686;BME280;27370;42.764;23.432;2022-07-12T12:50:44;95889.66;;;24.59;38.08
41686;BME280;27370;42.764;23.432;2022-07-12T12:53:17;95892.78;;;24.72;37.01
41686;BME280;27370;42.764;23.432;2022-07-12T12:55:45;95878.50;;;25.28;37.31
41686;BME280;27370;42.764;23.432;2022-07-12T12:58:11;95875.84;;;25.56;35.31
41686;BME280;27370;42.764;23.432;2022-07-12T13:00:40;95878.38;;;25.54;35.87
41686;BME280;27370;42.764;23.432;2022-07-12T13:03:10;95890.75;;;25.58;36.13